createdAt,value
2019-03-23T00:00:50.970Z,21.43
2019-03-23T00:03:38.399Z,22.70
2019-03-23T00:06:30.806Z,22.47
2019-03-23T00:09:15.291Z,21.77
2019-03-23T00:12:02.408Z,20.70
2019-03-23T00:14:49.935Z,23.70
2019-03-23T00:17:37.568Z,19.90
2019-03-23T00:20:25.295Z,20.27
2019-03-23T00:23:13.133Z,20.07
2019-03-23T00:26:01.133Z,20.53
2019-03-23T00:28:48.677Z,22.53
2019-03-23T00:31:36.429Z,25.57
2019-03-23T00:34:23.957Z,23.87
2019-03-23T00:37:11.379Z,25.37
2019-03-23T00:39:58.800Z,21.90
2019-03-23T00:42:46.229Z,24.93
2019-03-23T00:45:33.547Z,24.03
2019-03-23T00:48:20.871Z,22.43
2019-03-23T00:51:07.986Z,25.60
2019-03-23T00:53:55.308Z,23.80
2019-03-23T00:56:42.436Z,21.10
2019-03-23T00:59:30.263Z,22.57
2019-03-23T01:02:17.687Z,24.17
2019-03-23T01:05:07.571Z,27.83
2019-03-23T01:07:55.300Z,21.07
2019-03-23T01:10:43.029Z,29.13
2019-03-23T01:13:30.412Z,20.83
2019-03-23T01:16:17.468Z,21.10
2019-03-23T01:19:04.996Z,20.87
2019-03-23T01:21:52.318Z,20.30
2019-03-23T01:24:39.681Z,22.50
2019-03-23T01:27:27.164Z,23.13
2019-03-23T01:30:15.007Z,23.87
2019-03-23T01:33:02.081Z,26.17
2019-03-23T01:35:49.540Z,24.67
2019-03-23T01:38:36.451Z,20.43
2019-03-23T01:41:23.774Z,23.83
2019-03-23T01:44:11.301Z,23.70
2019-03-23T01:46:59.134Z,26.47
2019-03-23T01:49:46.763Z,28.70
2019-03-23T01:52:33.780Z,26.20
2019-03-23T01:55:21.306Z,25.03
2019-03-23T01:58:08.523Z,22.60
2019-03-23T02:00:56.577Z,27.20
2019-03-23T02:03:44.231Z,25.73
2019-03-23T02:06:31.922Z,24.27
2019-03-23T02:09:19.756Z,26.23
2019-03-23T02:12:07.384Z,25.87
2019-03-23T02:14:54.920Z,35.60
2019-03-23T02:17:42.440Z,34.47
2019-03-23T02:20:29.964Z,28.33
2019-03-23T02:23:17.286Z,28.67
2019-03-23T02:26:04.917Z,22.63
2019-03-23T02:28:52.648Z,24.90
2019-03-23T02:31:40.486Z,27.83
2019-03-23T02:34:28.008Z,23.10
2019-03-23T02:37:27.168Z,25.47
2019-03-23T02:40:06.746Z,23.60
2019-03-23T02:42:54.481Z,25.43
2019-03-23T02:45:41.815Z,25.63
2019-03-23T02:48:29.123Z,26.80
2019-03-23T02:51:16.461Z,25.60
2019-03-23T02:54:04.178Z,24.97
2019-03-23T02:56:51.418Z,24.20
2019-03-23T02:59:39.039Z,24.83
2019-03-23T03:02:26.348Z,24.47
2019-03-23T03:05:13.773Z,24.63
2019-03-23T03:08:00.905Z,24.80
2019-03-23T03:10:48.722Z,28.73
2019-03-23T03:13:36.564Z,25.40
2019-03-23T03:16:23.992Z,23.70
2019-03-23T03:19:11.403Z,22.13
2019-03-23T03:21:59.241Z,26.13
2019-03-23T03:24:47.074Z,30.00
2019-03-23T03:27:34.815Z,29.67
2019-03-23T03:30:22.542Z,29.10
2019-03-23T03:33:10.171Z,24.10
2019-03-23T03:35:57.691Z,23.47
2019-03-23T03:38:45.525Z,22.07
2019-03-23T03:41:33.495Z,22.20
2019-03-23T03:44:20.788Z,24.77
2019-03-23T03:47:08.015Z,24.73
2019-03-23T03:49:55.644Z,28.37
2019-03-23T03:52:43.365Z,25.37
2019-03-23T03:55:30.787Z,315.13
2019-03-23T03:58:18.115Z,100.80
2019-03-23T04:01:05.433Z,119.47
2019-03-23T04:03:53.186Z,24.37
2019-03-23T04:06:40.843Z,21.43
2019-03-23T04:09:28.319Z,20.33
2019-03-23T04:12:15.649Z,21.37
2019-03-23T04:15:02.976Z,20.63
2019-03-23T04:17:50.078Z,18.63
2019-03-23T04:20:37.911Z,17.57
2019-03-23T04:23:25.579Z,16.23
2019-03-23T04:26:14.402Z,16.97
2019-03-23T04:29:01.926Z,19.30
2019-03-23T04:31:49.657Z,18.40
2019-03-23T04:34:37.285Z,41.33
2019-03-23T04:37:24.707Z,26.50
2019-03-23T04:40:12.827Z,23.67
2019-03-23T04:43:00.172Z,23.00
2019-03-23T04:45:47.391Z,22.97
2019-03-23T04:48:34.717Z,21.93
2019-03-23T04:51:22.244Z,22.37
2019-03-23T04:54:09.768Z,18.67
2019-03-23T04:56:57.394Z,22.60
2019-03-23T04:59:45.129Z,22.90
2019-03-23T05:02:32.244Z,23.00
2019-03-23T05:05:19.773Z,20.80
2019-03-23T05:08:07.096Z,19.13
2019-03-23T05:10:54.622Z,20.43
2019-03-23T05:13:42.143Z,18.53
2019-03-23T05:16:29.570Z,16.87
2019-03-23T05:19:16.997Z,16.00
2019-03-23T05:22:04.727Z,19.33
2019-03-23T05:24:52.561Z,20.20
2019-03-23T05:27:40.193Z,18.17
2019-03-23T05:30:27.817Z,18.90
2019-03-23T05:33:14.934Z,22.30
2019-03-23T05:36:02.155Z,22.77
2019-03-23T05:38:49.886Z,20.07
2019-03-23T05:41:37.518Z,18.53
2019-03-23T05:44:24.940Z,19.03
2019-03-23T05:47:12.668Z,21.37
2019-03-23T05:50:00.437Z,21.93
2019-03-23T05:52:47.926Z,22.27
2019-03-23T05:55:35.763Z,39.00
2019-03-23T05:58:23.189Z,73.43
2019-03-23T06:01:10.509Z,40.07
2019-03-23T06:03:57.626Z,21.40
2019-03-23T06:06:45.477Z,19.77
2019-03-23T06:09:33.086Z,25.50
2019-03-23T06:12:20.203Z,48.80
2019-03-23T06:15:08.058Z,19.87
2019-03-23T06:17:55.573Z,17.73
2019-03-23T06:20:43.090Z,17.90
2019-03-23T06:23:31.001Z,16.77
2019-03-23T06:26:18.450Z,16.60
2019-03-23T06:29:06.899Z,16.17
2019-03-23T06:31:54.118Z,17.07
2019-03-23T06:34:41.645Z,19.53
2019-03-23T06:37:29.074Z,19.30
2019-03-23T06:40:16.084Z,22.40
2019-03-23T06:43:03.510Z,18.50
2019-03-23T06:45:51.242Z,19.33
2019-03-23T06:48:39.075Z,17.83
2019-03-23T06:51:26.602Z,14.97
2019-03-23T06:54:14.230Z,15.87
2019-03-23T06:57:01.444Z,12.87
2019-03-23T06:59:48.772Z,13.30
2019-03-23T07:02:36.518Z,10.93
2019-03-23T07:05:24.130Z,13.50
2019-03-23T07:08:11.965Z,10.83
2019-03-23T07:10:59.698Z,11.30
2019-03-23T07:13:47.018Z,10.33
2019-03-23T07:16:34.543Z,10.17
2019-03-23T07:19:21.762Z,9.73
2019-03-23T07:22:08.882Z,9.07
2019-03-23T07:24:56.511Z,8.93
2019-03-23T07:27:43.835Z,7.77
2019-03-23T07:30:31.363Z,7.67
2019-03-23T07:33:22.164Z,7.50
2019-03-23T07:36:09.788Z,7.87
2019-03-23T07:38:57.418Z,8.17
2019-03-23T07:41:45.252Z,8.17
2019-03-23T07:44:34.007Z,7.90
2019-03-23T07:47:21.228Z,7.00
2019-03-23T07:50:13.752Z,8.40
2019-03-23T07:53:00.886Z,8.23
2019-03-23T07:55:48.415Z,9.10
2019-03-23T07:58:36.044Z,6.33
2019-03-23T08:01:23.775Z,7.73
2019-03-23T08:04:11.096Z,7.73
2019-03-23T08:06:59.356Z,7.50
2019-03-23T08:09:46.872Z,6.80
2019-03-23T08:12:34.294Z,6.60
2019-03-23T08:15:22.025Z,6.10
2019-03-23T08:18:09.447Z,6.53
2019-03-23T08:20:56.569Z,9.43
2019-03-23T08:23:44.499Z,6.77
2019-03-23T08:26:32.231Z,6.60
2019-03-23T08:29:19.655Z,6.80
2019-03-23T08:32:07.591Z,7.27
2019-03-23T08:34:57.999Z,6.17
2019-03-23T08:37:44.490Z,7.37
2019-03-23T08:40:32.219Z,6.63
2019-03-23T08:43:20.325Z,7.10
2019-03-23T08:46:07.683Z,6.27
2019-03-23T08:48:55.413Z,6.57
2019-03-23T08:51:43.247Z,6.90
2019-03-23T08:54:30.876Z,7.87
2019-03-23T08:57:18.611Z,8.03
2019-03-23T09:00:09.225Z,7.27
2019-03-23T09:02:56.839Z,8.90
2019-03-23T09:05:44.363Z,7.43
2019-03-23T09:08:32.169Z,7.53
2019-03-23T09:11:20.647Z,7.87
2019-03-23T09:14:08.480Z,7.27
2019-03-23T09:16:56.108Z,7.60
2019-03-23T09:19:43.842Z,9.40
2019-03-23T09:22:31.374Z,11.00
2019-03-23T09:25:18.788Z,8.60
2019-03-23T09:28:06.521Z,10.28
2019-03-23T09:30:54.150Z,10.70
2019-03-23T09:33:41.573Z,9.08
2019-03-23T09:36:29.204Z,10.05
2019-03-23T09:39:21.858Z,10.48
2019-03-23T09:42:09.276Z,14.20
2019-03-23T09:44:56.700Z,10.03
2019-03-23T09:47:44.434Z,9.63
2019-03-23T09:50:31.853Z,10.00
2019-03-23T09:53:19.691Z,12.20
2019-03-23T09:56:07.214Z,9.30
2019-03-23T09:58:54.536Z,9.55
2019-03-23T10:01:42.068Z,9.88
2019-03-23T10:04:29.798Z,12.85
2019-03-23T10:07:17.424Z,10.35
2019-03-23T10:10:06.371Z,10.25
2019-03-23T10:12:53.911Z,10.48
2019-03-23T10:15:43.080Z,10.95
2019-03-23T10:18:30.501Z,12.70
2019-03-23T10:21:18.134Z,11.85
2019-03-23T10:24:05.583Z,10.65
2019-03-23T10:26:53.285Z,12.18
2019-03-23T10:29:40.812Z,14.43
2019-03-23T10:32:28.546Z,15.20
2019-03-23T10:35:16.276Z,13.53
2019-03-23T10:38:03.597Z,12.58
2019-03-23T10:40:51.230Z,16.25
2019-03-23T10:43:39.153Z,14.93
2019-03-23T10:46:27.102Z,13.18
2019-03-23T10:49:14.933Z,13.65
2019-03-23T10:52:02.665Z,11.57
2019-03-23T10:54:49.986Z,11.68
2019-03-23T10:57:37.411Z,13.10
2019-03-23T11:00:25.073Z,18.15
2019-03-23T11:03:12.602Z,15.05
2019-03-23T11:06:00.607Z,15.55
2019-03-23T11:08:48.134Z,15.83
2019-03-23T11:11:35.864Z,15.50
2019-03-23T11:14:23.286Z,15.88
2019-03-23T11:17:10.919Z,15.85
2019-03-23T11:19:58.652Z,19.15
2019-03-23T11:22:46.281Z,15.75
2019-03-23T11:25:34.110Z,16.15
2019-03-23T11:28:22.151Z,18.85
2019-03-23T11:31:09.985Z,14.55
2019-03-23T11:33:58.023Z,14.25
2019-03-23T11:36:45.446Z,16.90
2019-03-23T11:39:32.869Z,15.45
2019-03-23T11:42:20.614Z,17.48
2019-03-23T11:45:09.356Z,15.38
2019-03-23T11:47:56.678Z,14.45
2019-03-23T11:50:44.309Z,16.60
2019-03-23T11:53:31.838Z,18.67
2019-03-23T11:56:19.361Z,17.50
2019-03-23T11:59:07.196Z,18.80
2019-03-23T12:01:54.721Z,17.52
2019-03-23T12:04:42.249Z,17.87
2019-03-23T12:07:29.777Z,20.00
2019-03-23T12:10:17.110Z,17.05
2019-03-23T12:13:04.624Z,17.62
2019-03-23T12:15:52.154Z,19.82
2019-03-23T12:18:39.587Z,20.45
2019-03-23T12:21:26.798Z,18.85
2019-03-23T12:24:13.809Z,21.02
2019-03-23T12:27:01.278Z,19.82
2019-03-23T12:29:48.558Z,18.62
2019-03-23T12:32:36.084Z,20.55
2019-03-23T12:35:23.508Z,20.25
2019-03-23T12:38:11.145Z,20.02
2019-03-23T12:40:59.074Z,19.42
2019-03-23T12:43:46.701Z,20.02
2019-03-23T12:46:35.560Z,19.73
2019-03-23T12:49:23.290Z,18.42
2019-03-23T12:52:10.615Z,16.00
2019-03-23T12:54:58.449Z,18.48
2019-03-23T12:57:46.281Z,18.45
2019-03-23T13:00:34.216Z,19.20
2019-03-23T13:03:21.949Z,19.42
2019-03-23T13:06:09.580Z,20.72
2019-03-23T13:08:56.900Z,20.40
2019-03-23T13:11:44.735Z,20.00
2019-03-23T13:14:31.851Z,22.17
2019-03-23T13:17:19.274Z,20.65
2019-03-23T13:20:08.747Z,21.07
2019-03-23T13:22:56.787Z,21.50
2019-03-23T13:25:44.312Z,23.32
2019-03-23T13:28:31.942Z,22.05
2019-03-23T13:31:19.673Z,22.55
2019-03-23T13:34:06.698Z,22.13
2019-03-23T13:36:54.532Z,21.82
2019-03-23T13:39:42.514Z,21.70
2019-03-23T13:42:30.190Z,23.42
2019-03-23T13:45:17.924Z,23.65
2019-03-23T13:48:05.652Z,24.98
2019-03-23T13:50:52.975Z,24.35
2019-03-23T13:53:40.707Z,27.25
2019-03-23T13:56:28.131Z,27.40
2019-03-23T13:59:15.573Z,25.85
2019-03-23T14:02:03.289Z,28.23
2019-03-23T14:04:50.608Z,29.18
2019-03-23T14:07:38.137Z,36.33
2019-03-23T14:10:25.626Z,37.88
2019-03-23T14:13:12.551Z,39.55
2019-03-23T14:15:59.753Z,38.73
2019-03-23T14:18:46.783Z,40.98
2019-03-23T14:21:33.931Z,45.20
2019-03-23T14:24:21.557Z,42.10
2019-03-23T14:27:09.080Z,46.10
2019-03-23T14:29:56.609Z,44.67
2019-03-23T14:32:43.831Z,46.05
2019-03-23T14:35:30.950Z,47.20
2019-03-23T14:38:18.677Z,44.50
2019-03-23T14:41:06.307Z,46.18
2019-03-23T14:43:54.346Z,46.90
2019-03-23T14:46:42.082Z,63.45
2019-03-23T14:49:29.711Z,47.05
2019-03-23T14:52:17.553Z,48.25
2019-03-23T14:55:05.769Z,50.80
2019-03-23T14:57:52.899Z,51.73
2019-03-23T15:00:40.326Z,49.53
2019-03-23T15:03:28.263Z,53.13
2019-03-23T15:06:15.585Z,53.37
2019-03-23T15:09:04.444Z,56.77
2019-03-23T15:11:51.560Z,52.20
2019-03-23T15:14:39.084Z,55.67
2019-03-23T15:17:26.510Z,53.70
2019-03-23T15:20:14.240Z,54.70
2019-03-23T15:23:01.562Z,54.03
2019-03-23T15:25:49.642Z,53.80
2019-03-23T15:28:37.027Z,56.17
2019-03-23T15:31:24.349Z,57.93
2019-03-23T15:34:11.774Z,60.50
2019-03-23T15:36:59.607Z,55.77
2019-03-23T15:39:47.544Z,57.83
2019-03-23T15:42:35.072Z,58.00
2019-03-23T15:45:23.008Z,60.17
2019-03-23T15:48:10.329Z,59.10
2019-03-23T15:50:58.163Z,57.97
2019-03-23T15:53:45.283Z,60.57
2019-03-23T15:56:32.603Z,56.53
2019-03-23T15:59:20.345Z,59.50
2019-03-23T16:02:08.371Z,56.50
2019-03-23T16:04:55.899Z,53.43
2019-03-23T16:07:43.734Z,52.30
2019-03-23T16:10:30.954Z,55.73
2019-03-23T16:13:17.968Z,57.90
2019-03-23T16:16:05.866Z,55.30
2019-03-23T16:18:53.248Z,53.77
2019-03-23T16:21:40.548Z,53.97
2019-03-23T16:24:27.630Z,53.93
2019-03-23T16:27:14.996Z,49.47
2019-03-23T16:30:02.722Z,51.17
2019-03-23T16:32:50.455Z,48.97
2019-03-23T16:35:37.674Z,49.83
2019-03-23T16:38:25.095Z,47.60
2019-03-23T16:41:15.487Z,52.00
2019-03-23T16:44:03.221Z,49.57
2019-03-23T16:46:51.153Z,52.20
2019-03-23T16:49:38.483Z,51.37
2019-03-23T16:52:26.116Z,50.30
2019-03-23T16:55:14.863Z,53.47
2019-03-23T16:58:02.287Z,52.47
2019-03-23T17:00:49.535Z,49.50
2019-03-23T17:03:37.340Z,50.60
2019-03-23T17:06:24.867Z,53.53
2019-03-23T17:09:12.805Z,55.23
2019-03-23T17:12:00.230Z,50.37
2019-03-23T17:14:47.755Z,54.67
2019-03-23T17:17:35.382Z,55.53
2019-03-23T17:20:22.721Z,52.70
2019-03-23T17:23:10.543Z,53.73
2019-03-23T17:25:58.170Z,49.43
2019-03-23T17:28:45.594Z,53.90
2019-03-23T17:31:33.427Z,49.43
2019-03-23T17:34:20.853Z,48.40
2019-03-23T17:37:08.073Z,44.43
2019-03-23T17:39:55.700Z,42.43
2019-03-23T17:42:43.125Z,40.73
2019-03-23T17:45:30.551Z,42.17
2019-03-23T17:48:18.412Z,42.03
2019-03-23T17:51:07.095Z,41.10
2019-03-23T17:53:58.514Z,43.27
2019-03-23T17:56:43.935Z,51.47
2019-03-23T17:59:31.359Z,47.17
2019-03-23T18:02:18.781Z,57.63
2019-03-23T18:05:07.965Z,55.77
2019-03-23T18:07:55.688Z,45.03
2019-03-23T18:10:43.104Z,41.57
2019-03-23T18:13:30.631Z,43.70
2019-03-23T18:16:17.955Z,42.00
2019-03-23T18:19:05.889Z,38.37
2019-03-23T18:21:53.519Z,37.27
2019-03-23T18:24:40.945Z,37.40
2019-03-23T18:27:28.878Z,33.73
2019-03-23T18:30:40.369Z,32.90
2019-03-23T18:33:27.793Z,30.37
2019-03-23T18:36:15.523Z,33.50
2019-03-23T18:39:04.897Z,34.97
2019-03-23T18:41:52.111Z,46.93
2019-03-23T18:44:39.334Z,38.77
2019-03-23T18:47:26.762Z,51.40
2019-03-23T18:50:14.696Z,36.93
2019-03-23T18:53:02.219Z,35.70
2019-03-23T18:55:49.749Z,35.20
2019-03-23T18:58:37.273Z,30.37
2019-03-23T19:01:24.800Z,36.17
2019-03-23T19:04:12.538Z,43.60
2019-03-23T19:07:00.159Z,52.43
2019-03-23T19:09:48.915Z,48.43
2019-03-23T19:12:36.545Z,41.97
2019-03-23T19:15:24.276Z,60.93
2019-03-23T19:18:11.499Z,48.90
2019-03-23T19:20:59.023Z,51.57
2019-03-23T19:23:46.763Z,51.17
2019-03-23T19:26:34.388Z,41.50
2019-03-23T19:29:22.012Z,50.27
2019-03-23T19:32:09.336Z,41.73
2019-03-23T19:34:57.065Z,57.53
2019-03-23T19:37:44.596Z,46.13
2019-03-23T19:40:32.323Z,55.63
2019-03-23T19:43:19.754Z,57.57
2019-03-23T19:46:07.377Z,70.37
2019-03-23T19:48:54.803Z,67.20
2019-03-23T19:51:42.227Z,68.60
2019-03-23T19:54:30.022Z,44.70
2019-03-23T19:57:17.279Z,37.60
2019-03-23T20:00:07.181Z,36.57
2019-03-23T20:02:55.112Z,36.17
2019-03-23T20:05:42.688Z,39.97
2019-03-23T20:08:30.259Z,39.60
2019-03-23T20:11:17.901Z,35.83
2019-03-23T20:14:05.828Z,39.40
2019-03-23T20:16:53.344Z,39.67
2019-03-23T20:19:40.591Z,37.87
2019-03-23T20:22:28.401Z,39.53
2019-03-23T20:25:16.336Z,44.40
2019-03-23T20:28:03.967Z,39.23
2019-03-23T20:30:51.699Z,40.00
2019-03-23T20:33:39.331Z,38.27
2019-03-23T20:36:26.501Z,37.73
2019-03-23T20:39:14.275Z,35.00
2019-03-23T20:42:01.701Z,38.03
2019-03-23T20:44:49.433Z,39.73
2019-03-23T20:47:38.509Z,36.17
2019-03-23T20:50:26.482Z,34.57
2019-03-23T20:53:17.364Z,35.23
2019-03-23T20:56:05.077Z,29.87
2019-03-23T20:58:52.904Z,33.63
2019-03-23T21:01:43.670Z,35.57
2019-03-23T21:04:31.235Z,36.40
2019-03-23T21:07:18.458Z,35.50
2019-03-23T21:10:06.975Z,35.50
2019-03-23T21:12:54.231Z,34.80
2019-03-23T21:15:41.545Z,37.33
2019-03-23T21:18:29.073Z,37.17
2019-03-23T21:21:17.716Z,36.13
2019-03-23T21:24:05.462Z,42.00
2019-03-23T21:26:52.880Z,35.03
2019-03-23T21:29:41.272Z,35.50
2019-03-23T21:32:29.111Z,32.70
2019-03-23T21:35:16.793Z,35.03
2019-03-23T21:38:04.666Z,50.00
2019-03-23T21:40:52.360Z,45.60
2019-03-23T21:43:39.985Z,43.57
2019-03-23T21:46:27.408Z,28.40
2019-03-23T21:49:15.449Z,36.20
2019-03-23T21:52:03.283Z,34.23
2019-03-23T21:54:51.323Z,41.03
2019-03-23T21:57:39.266Z,36.43
2019-03-23T22:00:31.974Z,39.47
2019-03-23T22:03:19.328Z,37.00
2019-03-23T22:06:06.458Z,37.60
2019-03-23T22:08:54.586Z,41.80
2019-03-23T22:11:41.910Z,39.13
2019-03-23T22:14:29.542Z,40.87
2019-03-23T22:17:17.273Z,41.17
2019-03-23T22:20:06.760Z,36.27
2019-03-23T22:22:54.267Z,37.83
2019-03-23T22:25:41.695Z,43.13
2019-03-23T22:28:29.628Z,33.63
2019-03-23T22:31:17.053Z,32.30
2019-03-23T22:34:04.713Z,32.30
2019-03-23T22:36:59.210Z,36.60
2019-03-23T22:40:01.177Z,34.03
2019-03-23T22:43:02.937Z,36.30
2019-03-23T22:46:06.241Z,37.53
2019-03-23T22:49:09.693Z,40.47
2019-03-23T22:51:58.141Z,39.53
2019-03-23T22:54:45.565Z,40.70
2019-03-23T22:57:33.400Z,40.03
2019-03-23T23:00:41.717Z,38.00
2019-03-23T23:03:29.247Z,39.33
2019-03-23T23:06:16.665Z,43.37
2019-03-23T23:09:05.951Z,44.70
2019-03-23T23:11:53.668Z,44.17
2019-03-23T23:14:41.091Z,49.53
2019-03-23T23:17:28.719Z,41.80
2019-03-23T23:20:16.300Z,44.43
2019-03-23T23:23:03.621Z,42.47
2019-03-23T23:25:51.091Z,40.93
2019-03-23T23:28:38.927Z,47.57
2019-03-23T23:31:26.452Z,45.63
2019-03-23T23:34:14.185Z,48.40
2019-03-23T23:37:01.877Z,46.60
2019-03-23T23:39:49.862Z,45.90
2019-03-23T23:42:37.585Z,47.00
2019-03-23T23:45:25.009Z,48.87
2019-03-23T23:48:12.548Z,48.13
2019-03-23T23:51:00.163Z,47.70
2019-03-23T23:53:47.791Z,49.80
2019-03-23T23:56:35.464Z,47.23
2019-03-23T23:59:23.051Z,49.27
